sensor_id;sensor_type;location;lat;lon;timestamp;P1;durP1;ratioP1;P2;durP2;ratioP2
2452;SDS011;63678;47.994;7.854;2023-12-04T00:00:33;6.77;;;3.97;;
2452;SDS011;63678;47.994;7.854;2023-12-04T00:03:05;10.80;;;5.70;;
2452;SDS011;63678;47.994;7.854;2023-12-04T00:05:38;8.82;;;4.55;;
2452;SDS011;63678;47.994;7.854;2023-12-04T00:08:10;6.85;;;4.00;;
2452;SDS011;63678;47.994;7.854;2023-12-04T00:10:42;16.15;;;7.63;;
2452;SDS011;63678;47.994;7.854;2023-12-04T00:13:15;11.10;;;6.03;;
2452;SDS011;63678;47.994;7.854;2023-12-04T00:15:47;9.57;;;5.45;;
2452;SDS011;63678;47.994;7.854;2023-12-04T00:18:19;9.15;;;4.85;;
2452;SDS011;63678;47.994;7.854;2023-12-04T00:20:51;7.78;;;4.22;;
2452;SDS011;63678;47.994;7.854;2023-12-04T00:23:23;6.57;;;3.42;;
2452;SDS011;63678;47.994;7.854;2023-12-04T00:25:56;12.40;;;5.97;;
2452;SDS011;63678;47.994;7.854;2023-12-04T00:28:28;16.15;;;7.22;;
2452;SDS011;63678;47.994;7.854;2023-12-04T00:31:00;15.40;;;7.22;;
2452;SDS011;63678;47.994;7.854;2023-12-04T00:33:32;19.42;;;9.02;;
2452;SDS011;63678;47.994;7.854;2023-12-04T00:36:05;20.10;;;10.25;;
2452;SDS011;63678;47.994;7.854;2023-12-04T00:38:38;21.23;;;11.03;;
2452;SDS011;63678;47.994;7.854;2023-12-04T00:41:10;22.05;;;10.05;;
2452;SDS011;63678;47.994;7.854;2023-12-04T00:43:42;23.05;;;10.93;;
2452;SDS011;63678;47.994;7.854;2023-12-04T00:46:15;20.27;;;10.00;;
2452;SDS011;63678;47.994;7.854;2023-12-04T00:48:47;21.98;;;10.35;;
2452;SDS011;63678;47.994;7.854;2023-12-04T00:51:19;27.43;;;13.63;;
2452;SDS011;63678;47.994;7.854;2023-12-04T00:53:51;25.83;;;12.95;;
2452;SDS011;63678;47.994;7.854;2023-12-04T00:56:24;30.45;;;13.55;;
2452;SDS011;63678;47.994;7.854;2023-12-04T00:58:56;28.63;;;12.63;;
2452;SDS011;63678;47.994;7.854;2023-12-04T01:01:29;23.48;;;11.55;;
2452;SDS011;63678;47.994;7.854;2023-12-04T01:04:01;23.03;;;11.87;;
2452;SDS011;63678;47.994;7.854;2023-12-04T01:06:34;22.70;;;10.90;;
2452;SDS011;63678;47.994;7.854;2023-12-04T01:09:07;27.58;;;13.35;;
2452;SDS011;63678;47.994;7.854;2023-12-04T01:11:39;30.92;;;14.95;;
2452;SDS011;63678;47.994;7.854;2023-12-04T01:14:11;33.88;;;14.77;;
2452;SDS011;63678;47.994;7.854;2023-12-04T01:16:44;29.23;;;13.80;;
2452;SDS011;63678;47.994;7.854;2023-12-04T01:19:16;29.77;;;15.25;;
2452;SDS011;63678;47.994;7.854;2023-12-04T01:21:48;31.25;;;14.90;;
2452;SDS011;63678;47.994;7.854;2023-12-04T01:24:20;33.58;;;15.25;;
2452;SDS011;63678;47.994;7.854;2023-12-04T01:26:53;28.80;;;14.48;;
2452;SDS011;63678;47.994;7.854;2023-12-04T01:29:25;28.53;;;15.00;;
2452;SDS011;63678;47.994;7.854;2023-12-04T01:31:58;27.48;;;12.90;;
2452;SDS011;63678;47.994;7.854;2023-12-04T01:34:30;19.67;;;9.85;;
2452;SDS011;63678;47.994;7.854;2023-12-04T01:37:02;15.02;;;7.55;;
2452;SDS011;63678;47.994;7.854;2023-12-04T01:39:35;13.15;;;6.00;;
2452;SDS011;63678;47.994;7.854;2023-12-04T01:42:07;9.67;;;5.37;;
2452;SDS011;63678;47.994;7.854;2023-12-04T01:44:39;21.88;;;9.57;;
2452;SDS011;63678;47.994;7.854;2023-12-04T01:47:11;21.08;;;10.35;;
2452;SDS011;63678;47.994;7.854;2023-12-04T01:49:43;17.20;;;8.00;;
2452;SDS011;63678;47.994;7.854;2023-12-04T01:52:16;15.45;;;7.55;;
2452;SDS011;63678;47.994;7.854;2023-12-04T01:54:48;16.53;;;8.63;;
2452;SDS011;63678;47.994;7.854;2023-12-04T01:57:20;21.23;;;10.60;;
2452;SDS011;63678;47.994;7.854;2023-12-04T01:59:53;19.70;;;10.05;;
2452;SDS011;63678;47.994;7.854;2023-12-04T02:02:25;26.75;;;13.55;;
2452;SDS011;63678;47.994;7.854;2023-12-04T02:04:59;36.28;;;16.63;;
2452;SDS011;63678;47.994;7.854;2023-12-04T02:07:33;33.87;;;15.67;;
2452;SDS011;63678;47.994;7.854;2023-12-04T02:10:07;28.13;;;13.50;;
2452;SDS011;63678;47.994;7.854;2023-12-04T02:12:40;28.88;;;14.63;;
2452;SDS011;63678;47.994;7.854;2023-12-04T02:15:13;33.08;;;15.25;;
2452;SDS011;63678;47.994;7.854;2023-12-04T02:17:45;22.63;;;10.93;;
2452;SDS011;63678;47.994;7.854;2023-12-04T02:20:17;18.63;;;10.00;;
2452;SDS011;63678;47.994;7.854;2023-12-04T02:22:49;14.20;;;7.15;;
2452;SDS011;63678;47.994;7.854;2023-12-04T02:25:22;13.82;;;7.03;;
2452;SDS011;63678;47.994;7.854;2023-12-04T02:28:07;13.05;;;6.07;;
2452;SDS011;63678;47.994;7.854;2023-12-04T02:30:45;12.38;;;6.60;;
2452;SDS011;63678;47.994;7.854;2023-12-04T02:33:19;12.60;;;6.70;;
2452;SDS011;63678;47.994;7.854;2023-12-04T02:35:55;14.77;;;6.95;;
2452;SDS011;63678;47.994;7.854;2023-12-04T02:38:30;16.10;;;8.32;;
2452;SDS011;63678;47.994;7.854;2023-12-04T02:41:03;16.52;;;8.20;;
2452;SDS011;63678;47.994;7.854;2023-12-04T02:43:36;18.67;;;8.90;;
2452;SDS011;63678;47.994;7.854;2023-12-04T02:46:08;18.40;;;9.03;;
2452;SDS011;63678;47.994;7.854;2023-12-04T02:48:41;18.42;;;9.00;;
2452;SDS011;63678;47.994;7.854;2023-12-04T02:51:13;19.48;;;9.45;;
2452;SDS011;63678;47.994;7.854;2023-12-04T02:53:45;20.33;;;10.40;;
2452;SDS011;63678;47.994;7.854;2023-12-04T02:56:18;22.17;;;11.38;;
2452;SDS011;63678;47.994;7.854;2023-12-04T02:58:50;23.73;;;11.30;;
2452;SDS011;63678;47.994;7.854;2023-12-04T03:01:22;24.30;;;12.05;;
2452;SDS011;63678;47.994;7.854;2023-12-04T03:03:54;24.77;;;11.88;;
2452;SDS011;63678;47.994;7.854;2023-12-04T03:06:27;20.25;;;9.13;;
2452;SDS011;63678;47.994;7.854;2023-12-04T03:08:59;22.85;;;10.80;;
2452;SDS011;63678;47.994;7.854;2023-12-04T03:11:31;22.17;;;11.13;;
2452;SDS011;63678;47.994;7.854;2023-12-04T03:14:04;25.80;;;13.15;;
2452;SDS011;63678;47.994;7.854;2023-12-04T03:16:36;29.52;;;14.45;;
2452;SDS011;63678;47.994;7.854;2023-12-04T03:19:08;27.05;;;13.85;;
2452;SDS011;63678;47.994;7.854;2023-12-04T03:21:41;25.17;;;12.32;;
2452;SDS011;63678;47.994;7.854;2023-12-04T03:24:13;21.70;;;11.10;;
2452;SDS011;63678;47.994;7.854;2023-12-04T03:26:45;20.83;;;10.13;;
2452;SDS011;63678;47.994;7.854;2023-12-04T03:29:18;23.88;;;11.32;;
2452;SDS011;63678;47.994;7.854;2023-12-04T03:31:50;26.15;;;10.75;;
2452;SDS011;63678;47.994;7.854;2023-12-04T03:34:22;20.92;;;10.80;;
2452;SDS011;63678;47.994;7.854;2023-12-04T03:36:55;23.00;;;10.03;;
2452;SDS011;63678;47.994;7.854;2023-12-04T03:39:27;19.77;;;10.40;;
2452;SDS011;63678;47.994;7.854;2023-12-04T03:42:00;22.48;;;10.38;;
2452;SDS011;63678;47.994;7.854;2023-12-04T03:44:32;19.63;;;9.82;;
2452;SDS011;63678;47.994;7.854;2023-12-04T03:47:05;17.15;;;9.18;;
2452;SDS011;63678;47.994;7.854;2023-12-04T03:49:37;14.50;;;8.10;;
2452;SDS011;63678;47.994;7.854;2023-12-04T03:52:09;15.20;;;7.93;;
2452;SDS011;63678;47.994;7.854;2023-12-04T03:54:42;12.82;;;6.93;;
2452;SDS011;63678;47.994;7.854;2023-12-04T03:57:15;14.23;;;6.80;;
2452;SDS011;63678;47.994;7.854;2023-12-04T03:59:48;11.52;;;5.78;;
2452;SDS011;63678;47.994;7.854;2023-12-04T04:02:20;10.40;;;4.70;;
2452;SDS011;63678;47.994;7.854;2023-12-04T04:04:52;10.02;;;5.05;;
2452;SDS011;63678;47.994;7.854;2023-12-04T04:07:25;11.88;;;5.95;;
2452;SDS011;63678;47.994;7.854;2023-12-04T04:09:58;9.00;;;4.32;;
2452;SDS011;63678;47.994;7.854;2023-12-04T04:12:31;8.68;;;5.03;;
2452;SDS011;63678;47.994;7.854;2023-12-04T04:15:03;10.57;;;5.30;;
2452;SDS011;63678;47.994;7.854;2023-12-04T04:17:36;11.30;;;5.55;;
2452;SDS011;63678;47.994;7.854;2023-12-04T04:20:08;9.35;;;5.13;;
2452;SDS011;63678;47.994;7.854;2023-12-04T04:22:43;10.20;;;5.97;;
2452;SDS011;63678;47.994;7.854;2023-12-04T04:25:15;10.75;;;5.50;;
2452;SDS011;63678;47.994;7.854;2023-12-04T04:27:48;9.43;;;4.77;;
2452;SDS011;63678;47.994;7.854;2023-12-04T04:30:20;6.88;;;4.40;;
2452;SDS011;63678;47.994;7.854;2023-12-04T04:32:52;8.65;;;4.13;;
2452;SDS011;63678;47.994;7.854;2023-12-04T04:35:25;7.93;;;3.90;;
2452;SDS011;63678;47.994;7.854;2023-12-04T04:37:58;7.38;;;3.83;;
2452;SDS011;63678;47.994;7.854;2023-12-04T04:40:30;5.50;;;3.37;;
2452;SDS011;63678;47.994;7.854;2023-12-04T04:43:03;6.78;;;3.78;;
2452;SDS011;63678;47.994;7.854;2023-12-04T04:45:35;5.45;;;3.05;;
2452;SDS011;63678;47.994;7.854;2023-12-04T04:48:08;5.70;;;3.33;;
2452;SDS011;63678;47.994;7.854;2023-12-04T04:50:40;6.32;;;3.33;;
2452;SDS011;63678;47.994;7.854;2023-12-04T04:53:13;6.50;;;3.60;;
2452;SDS011;63678;47.994;7.854;2023-12-04T04:55:45;5.22;;;3.17;;
2452;SDS011;63678;47.994;7.854;2023-12-04T04:58:20;6.70;;;2.90;;
2452;SDS011;63678;47.994;7.854;2023-12-04T05:00:52;5.00;;;3.13;;
2452;SDS011;63678;47.994;7.854;2023-12-04T05:03:24;5.47;;;2.60;;
2452;SDS011;63678;47.994;7.854;2023-12-04T05:05:57;5.00;;;2.77;;
2452;SDS011;63678;47.994;7.854;2023-12-04T05:08:29;24.55;;;8.73;;
2452;SDS011;63678;47.994;7.854;2023-12-04T05:11:01;9.23;;;5.20;;
2452;SDS011;63678;47.994;7.854;2023-12-04T05:13:34;15.82;;;7.22;;
2452;SDS011;63678;47.994;7.854;2023-12-04T05:16:06;14.45;;;7.35;;
2452;SDS011;63678;47.994;7.854;2023-12-04T05:18:39;18.77;;;8.73;;
2452;SDS011;63678;47.994;7.854;2023-12-04T05:21:12;14.43;;;7.70;;
2452;SDS011;63678;47.994;7.854;2023-12-04T05:23:44;13.75;;;7.40;;
2452;SDS011;63678;47.994;7.854;2023-12-04T05:26:16;14.43;;;7.95;;
2452;SDS011;63678;47.994;7.854;2023-12-04T05:28:48;16.42;;;7.57;;
2452;SDS011;63678;47.994;7.854;2023-12-04T05:31:21;15.73;;;7.90;;
2452;SDS011;63678;47.994;7.854;2023-12-04T05:33:53;16.00;;;7.80;;
2452;SDS011;63678;47.994;7.854;2023-12-04T05:36:27;16.13;;;8.38;;
2452;SDS011;63678;47.994;7.854;2023-12-04T05:38:59;16.60;;;7.50;;
2452;SDS011;63678;47.994;7.854;2023-12-04T05:41:32;17.25;;;8.02;;
2452;SDS011;63678;47.994;7.854;2023-12-04T05:44:04;17.63;;;8.20;;
2452;SDS011;63678;47.994;7.854;2023-12-04T05:46:36;19.08;;;8.68;;
2452;SDS011;63678;47.994;7.854;2023-12-04T05:49:09;16.13;;;8.70;;
2452;SDS011;63678;47.994;7.854;2023-12-04T05:51:41;17.13;;;8.00;;
2452;SDS011;63678;47.994;7.854;2023-12-04T05:54:14;15.57;;;8.20;;
2452;SDS011;63678;47.994;7.854;2023-12-04T05:56:46;15.53;;;8.17;;
2452;SDS011;63678;47.994;7.854;2023-12-04T05:59:18;19.00;;;9.38;;
2452;SDS011;63678;47.994;7.854;2023-12-04T06:01:51;17.77;;;9.07;;
2452;SDS011;63678;47.994;7.854;2023-12-04T06:04:23;18.00;;;9.02;;
2452;SDS011;63678;47.994;7.854;2023-12-04T06:06:55;15.52;;;8.82;;
2452;SDS011;63678;47.994;7.854;2023-12-04T06:09:28;17.43;;;9.27;;
2452;SDS011;63678;47.994;7.854;2023-12-04T06:12:00;21.50;;;8.95;;
2452;SDS011;63678;47.994;7.854;2023-12-04T06:14:39;14.85;;;8.75;;
2452;SDS011;63678;47.994;7.854;2023-12-04T06:17:11;23.08;;;11.98;;
2452;SDS011;63678;47.994;7.854;2023-12-04T06:19:45;28.40;;;13.15;;
2452;SDS011;63678;47.994;7.854;2023-12-04T06:22:18;27.27;;;13.63;;
2452;SDS011;63678;47.994;7.854;2023-12-04T06:24:53;30.30;;;14.30;;
2452;SDS011;63678;47.994;7.854;2023-12-04T06:27:25;29.30;;;14.40;;
2452;SDS011;63678;47.994;7.854;2023-12-04T06:29:58;27.50;;;14.20;;
2452;SDS011;63678;47.994;7.854;2023-12-04T06:32:31;25.95;;;14.25;;
2452;SDS011;63678;47.994;7.854;2023-12-04T06:35:04;26.23;;;14.00;;
2452;SDS011;63678;47.994;7.854;2023-12-04T06:37:38;30.02;;;14.48;;
2452;SDS011;63678;47.994;7.854;2023-12-04T06:40:12;31.83;;;14.70;;
2452;SDS011;63678;47.994;7.854;2023-12-04T06:42:45;32.47;;;16.30;;
2452;SDS011;63678;47.994;7.854;2023-12-04T06:45:23;31.42;;;15.15;;
2452;SDS011;63678;47.994;7.854;2023-12-04T06:47:56;36.50;;;18.33;;
2452;SDS011;63678;47.994;7.854;2023-12-04T06:50:28;28.58;;;14.98;;
2452;SDS011;63678;47.994;7.854;2023-12-04T06:53:01;34.72;;;17.30;;
2452;SDS011;63678;47.994;7.854;2023-12-04T06:55:34;32.10;;;14.77;;
2452;SDS011;63678;47.994;7.854;2023-12-04T06:58:06;38.20;;;16.95;;
2452;SDS011;63678;47.994;7.854;2023-12-04T07:00:38;37.70;;;17.17;;
2452;SDS011;63678;47.994;7.854;2023-12-04T07:03:11;34.75;;;16.40;;
2452;SDS011;63678;47.994;7.854;2023-12-04T07:05:46;32.65;;;16.52;;
2452;SDS011;63678;47.994;7.854;2023-12-04T07:08:19;29.55;;;14.25;;
2452;SDS011;63678;47.994;7.854;2023-12-04T07:10:51;32.53;;;15.15;;
2452;SDS011;63678;47.994;7.854;2023-12-04T07:13:24;31.80;;;15.20;;
2452;SDS011;63678;47.994;7.854;2023-12-04T07:15:57;26.75;;;14.85;;
2452;SDS011;63678;47.994;7.854;2023-12-04T07:18:31;27.70;;;13.60;;
2452;SDS011;63678;47.994;7.854;2023-12-04T07:21:04;30.70;;;13.30;;
2452;SDS011;63678;47.994;7.854;2023-12-04T07:23:36;20.67;;;10.68;;
2452;SDS011;63678;47.994;7.854;2023-12-04T07:26:08;16.77;;;8.77;;
2452;SDS011;63678;47.994;7.854;2023-12-04T07:28:41;14.90;;;8.02;;
2452;SDS011;63678;47.994;7.854;2023-12-04T07:31:13;11.82;;;6.00;;
2452;SDS011;63678;47.994;7.854;2023-12-04T07:33:48;12.82;;;6.43;;
2452;SDS011;63678;47.994;7.854;2023-12-04T07:36:41;17.50;;;8.80;;
2452;SDS011;63678;47.994;7.854;2023-12-04T07:39:49;22.87;;;11.30;;
2452;SDS011;63678;47.994;7.854;2023-12-04T07:42:29;20.27;;;10.60;;
2452;SDS011;63678;47.994;7.854;2023-12-04T07:45:16;14.77;;;8.27;;
2452;SDS011;63678;47.994;7.854;2023-12-04T07:49:36;24.13;;;9.95;;
2452;SDS011;63678;47.994;7.854;2023-12-04T08:16:15;33.40;;;16.23;;
2452;SDS011;63678;47.994;7.854;2023-12-04T08:18:47;40.88;;;17.42;;
2452;SDS011;63678;47.994;7.854;2023-12-04T08:21:20;27.30;;;13.63;;
2452;SDS011;63678;47.994;7.854;2023-12-04T08:23:52;38.10;;;17.90;;
2452;SDS011;63678;47.994;7.854;2023-12-04T08:26:25;40.80;;;19.27;;
2452;SDS011;63678;47.994;7.854;2023-12-04T08:28:57;34.55;;;17.45;;
2452;SDS011;63678;47.994;7.854;2023-12-04T08:31:29;34.20;;;17.77;;
2452;SDS011;63678;47.994;7.854;2023-12-04T08:34:01;34.25;;;17.00;;
2452;SDS011;63678;47.994;7.854;2023-12-04T08:36:33;34.20;;;16.55;;
2452;SDS011;63678;47.994;7.854;2023-12-04T08:39:17;31.27;;;15.53;;
2452;SDS011;63678;47.994;7.854;2023-12-04T08:41:49;25.92;;;13.20;;
2452;SDS011;63678;47.994;7.854;2023-12-04T08:44:34;27.55;;;13.57;;
2452;SDS011;63678;47.994;7.854;2023-12-04T08:47:07;30.90;;;14.73;;
2452;SDS011;63678;47.994;7.854;2023-12-04T08:49:40;30.40;;;15.77;;
2452;SDS011;63678;47.994;7.854;2023-12-04T08:52:19;30.77;;;14.90;;
2452;SDS011;63678;47.994;7.854;2023-12-04T08:54:52;15.35;;;8.40;;
2452;SDS011;63678;47.994;7.854;2023-12-04T08:57:26;12.93;;;6.13;;
2452;SDS011;63678;47.994;7.854;2023-12-04T08:59:58;14.52;;;6.85;;
2452;SDS011;63678;47.994;7.854;2023-12-04T09:02:31;9.93;;;6.00;;
2452;SDS011;63678;47.994;7.854;2023-12-04T09:05:04;10.83;;;5.23;;
2452;SDS011;63678;47.994;7.854;2023-12-04T09:07:38;10.07;;;5.00;;
2452;SDS011;63678;47.994;7.854;2023-12-04T09:10:13;7.55;;;3.90;;
2452;SDS011;63678;47.994;7.854;2023-12-04T09:13:05;7.13;;;3.55;;
2452;SDS011;63678;47.994;7.854;2023-12-04T09:15:37;7.50;;;4.07;;
2452;SDS011;63678;47.994;7.854;2023-12-04T09:18:10;7.00;;;3.87;;
2452;SDS011;63678;47.994;7.854;2023-12-04T09:20:43;7.00;;;3.88;;
2452;SDS011;63678;47.994;7.854;2023-12-04T09:23:16;8.10;;;4.05;;
2452;SDS011;63678;47.994;7.854;2023-12-04T09:25:48;7.03;;;3.97;;
2452;SDS011;63678;47.994;7.854;2023-12-04T09:28:20;8.20;;;4.15;;
2452;SDS011;63678;47.994;7.854;2023-12-04T09:30:52;23.60;;;11.87;;
2452;SDS011;63678;47.994;7.854;2023-12-04T09:33:25;34.92;;;16.58;;
2452;SDS011;63678;47.994;7.854;2023-12-04T09:35:59;27.00;;;14.95;;
2452;SDS011;63678;47.994;7.854;2023-12-04T09:38:32;31.08;;;15.73;;
2452;SDS011;63678;47.994;7.854;2023-12-04T09:41:06;27.45;;;14.02;;
2452;SDS011;63678;47.994;7.854;2023-12-04T09:43:43;36.67;;;15.63;;
2452;SDS011;63678;47.994;7.854;2023-12-04T09:46:16;38.85;;;17.75;;
2452;SDS011;63678;47.994;7.854;2023-12-04T09:48:49;41.47;;;18.02;;
2452;SDS011;63678;47.994;7.854;2023-12-04T09:51:24;33.88;;;17.08;;
2452;SDS011;63678;47.994;7.854;2023-12-04T09:53:57;34.38;;;17.75;;
2452;SDS011;63678;47.994;7.854;2023-12-04T09:56:36;37.17;;;18.57;;
2452;SDS011;63678;47.994;7.854;2023-12-04T09:59:09;33.40;;;17.50;;
2452;SDS011;63678;47.994;7.854;2023-12-04T10:01:44;34.13;;;15.57;;
2452;SDS011;63678;47.994;7.854;2023-12-04T10:04:19;20.10;;;11.32;;
2452;SDS011;63678;47.994;7.854;2023-12-04T10:06:53;16.27;;;9.30;;
2452;SDS011;63678;47.994;7.854;2023-12-04T10:09:25;12.43;;;6.67;;
2452;SDS011;63678;47.994;7.854;2023-12-04T10:11:57;13.77;;;7.40;;
2452;SDS011;63678;47.994;7.854;2023-12-04T10:14:31;20.08;;;9.15;;
2452;SDS011;63678;47.994;7.854;2023-12-04T10:17:16;11.85;;;6.93;;
2452;SDS011;63678;47.994;7.854;2023-12-04T10:19:52;14.32;;;5.60;;
2452;SDS011;63678;47.994;7.854;2023-12-04T10:22:52;9.10;;;4.53;;
2452;SDS011;63678;47.994;7.854;2023-12-04T10:25:30;12.93;;;4.97;;
2452;SDS011;63678;47.994;7.854;2023-12-04T10:28:10;7.85;;;4.55;;
2452;SDS011;63678;47.994;7.854;2023-12-04T10:30:45;8.18;;;3.15;;
2452;SDS011;63678;47.994;7.854;2023-12-04T10:33:18;10.13;;;4.00;;
2452;SDS011;63678;47.994;7.854;2023-12-04T10:35:50;8.77;;;4.30;;
2452;SDS011;63678;47.994;7.854;2023-12-04T10:38:23;8.38;;;4.20;;
2452;SDS011;63678;47.994;7.854;2023-12-04T10:40:57;8.10;;;4.18;;
2452;SDS011;63678;47.994;7.854;2023-12-04T10:43:47;7.40;;;3.83;;
2452;SDS011;63678;47.994;7.854;2023-12-04T10:46:28;7.60;;;3.92;;
2452;SDS011;63678;47.994;7.854;2023-12-04T10:49:01;6.40;;;4.00;;
2452;SDS011;63678;47.994;7.854;2023-12-04T10:51:37;8.07;;;4.40;;
2452;SDS011;63678;47.994;7.854;2023-12-04T10:54:10;13.07;;;4.85;;
2452;SDS011;63678;47.994;7.854;2023-12-04T10:56:44;11.20;;;5.03;;
2452;SDS011;63678;47.994;7.854;2023-12-04T10:59:21;9.30;;;4.35;;
2452;SDS011;63678;47.994;7.854;2023-12-04T11:02:04;12.13;;;5.40;;
2452;SDS011;63678;47.994;7.854;2023-12-04T11:04:40;22.35;;;9.70;;
2452;SDS011;63678;47.994;7.854;2023-12-04T11:07:13;23.77;;;12.65;;
2452;SDS011;63678;47.994;7.854;2023-12-04T11:09:48;32.42;;;17.05;;
2452;SDS011;63678;47.994;7.854;2023-12-04T11:12:22;40.92;;;18.40;;
2452;SDS011;63678;47.994;7.854;2023-12-04T11:14:59;46.00;;;19.77;;
2452;SDS011;63678;47.994;7.854;2023-12-04T11:17:54;38.00;;;19.63;;
2452;SDS011;63678;47.994;7.854;2023-12-04T11:20:36;38.95;;;18.40;;
2452;SDS011;63678;47.994;7.854;2023-12-04T11:23:27;37.22;;;18.23;;
2452;SDS011;63678;47.994;7.854;2023-12-04T11:26:03;13.27;;;5.78;;
2452;SDS011;63678;47.994;7.854;2023-12-04T11:28:36;13.97;;;5.70;;
2452;SDS011;63678;47.994;7.854;2023-12-04T11:31:10;8.18;;;4.70;;
2452;SDS011;63678;47.994;7.854;2023-12-04T11:33:43;9.13;;;4.15;;
2452;SDS011;63678;47.994;7.854;2023-12-04T11:36:16;9.35;;;4.15;;
2452;SDS011;63678;47.994;7.854;2023-12-04T11:38:49;6.65;;;3.97;;
2452;SDS011;63678;47.994;7.854;2023-12-04T11:41:22;9.80;;;4.00;;
2452;SDS011;63678;47.994;7.854;2023-12-04T11:43:58;12.98;;;5.13;;
2452;SDS011;63678;47.994;7.854;2023-12-04T11:46:32;11.73;;;5.03;;
2452;SDS011;63678;47.994;7.854;2023-12-04T11:52:07;6.57;;;3.03;;
2452;SDS011;63678;47.994;7.854;2023-12-04T11:55:01;6.63;;;3.67;;
2452;SDS011;63678;47.994;7.854;2023-12-04T11:57:38;5.80;;;3.30;;
2452;SDS011;63678;47.994;7.854;2023-12-04T12:20:32;10.35;;;2.80;;
2452;SDS011;63678;47.994;7.854;2023-12-04T12:51:51;11.45;;;3.60;;
2452;SDS011;63678;47.994;7.854;2023-12-04T12:55:32;7.30;;;3.42;;
2452;SDS011;63678;47.994;7.854;2023-12-04T12:58:05;8.48;;;4.53;;
2452;SDS011;63678;47.994;7.854;2023-12-04T13:00:37;10.05;;;4.20;;
2452;SDS011;63678;47.994;7.854;2023-12-04T13:03:16;17.50;;;8.80;;
2452;SDS011;63678;47.994;7.854;2023-12-04T13:05:49;15.10;;;7.57;;
2452;SDS011;63678;47.994;7.854;2023-12-04T13:08:22;13.77;;;7.82;;
2452;SDS011;63678;47.994;7.854;2023-12-04T13:10:54;19.10;;;8.00;;
2452;SDS011;63678;47.994;7.854;2023-12-04T13:13:27;14.00;;;6.53;;
2452;SDS011;63678;47.994;7.854;2023-12-04T13:16:01;14.47;;;7.20;;
2452;SDS011;63678;47.994;7.854;2023-12-04T13:18:34;12.93;;;6.45;;
2452;SDS011;63678;47.994;7.854;2023-12-04T13:21:07;14.07;;;6.68;;
2452;SDS011;63678;47.994;7.854;2023-12-04T13:23:42;16.73;;;8.32;;
2452;SDS011;63678;47.994;7.854;2023-12-04T13:26:14;8.60;;;4.43;;
2452;SDS011;63678;47.994;7.854;2023-12-04T13:28:47;13.50;;;4.83;;
2452;SDS011;63678;47.994;7.854;2023-12-04T13:31:20;10.48;;;5.38;;
2452;SDS011;63678;47.994;7.854;2023-12-04T13:33:58;13.45;;;5.55;;
2452;SDS011;63678;47.994;7.854;2023-12-04T13:36:30;7.05;;;4.03;;
2452;SDS011;63678;47.994;7.854;2023-12-04T13:39:05;9.05;;;3.65;;
2452;SDS011;63678;47.994;7.854;2023-12-04T13:41:48;6.63;;;3.77;;
2452;SDS011;63678;47.994;7.854;2023-12-04T13:44:39;7.50;;;3.13;;
2452;SDS011;63678;47.994;7.854;2023-12-04T13:47:12;8.43;;;2.95;;
2452;SDS011;63678;47.994;7.854;2023-12-04T13:49:47;8.20;;;3.80;;
2452;SDS011;63678;47.994;7.854;2023-12-04T13:52:21;8.40;;;3.38;;
2452;SDS011;63678;47.994;7.854;2023-12-04T13:54:55;5.43;;;2.57;;
2452;SDS011;63678;47.994;7.854;2023-12-04T13:57:28;4.65;;;2.13;;
2452;SDS011;63678;47.994;7.854;2023-12-04T14:00:16;5.38;;;2.67;;
2452;SDS011;63678;47.994;7.854;2023-12-04T14:02:48;4.38;;;2.15;;
2452;SDS011;63678;47.994;7.854;2023-12-04T14:05:25;7.97;;;2.63;;
2452;SDS011;63678;47.994;7.854;2023-12-04T14:07:59;5.10;;;2.70;;
2452;SDS011;63678;47.994;7.854;2023-12-04T14:10:32;3.67;;;1.70;;
2452;SDS011;63678;47.994;7.854;2023-12-04T14:13:05;8.30;;;2.50;;
2452;SDS011;63678;47.994;7.854;2023-12-04T14:15:38;7.95;;;2.55;;
2452;SDS011;63678;47.994;7.854;2023-12-04T14:18:11;6.85;;;2.80;;
2452;SDS011;63678;47.994;7.854;2023-12-04T14:20:58;5.03;;;2.67;;
2452;SDS011;63678;47.994;7.854;2023-12-04T14:23:31;4.30;;;2.00;;
2452;SDS011;63678;47.994;7.854;2023-12-04T14:26:03;4.75;;;2.13;;
2452;SDS011;63678;47.994;7.854;2023-12-04T14:28:36;4.75;;;2.38;;
2452;SDS011;63678;47.994;7.854;2023-12-04T14:31:13;4.40;;;2.42;;
2452;SDS011;63678;47.994;7.854;2023-12-04T14:33:46;10.27;;;4.33;;
2452;SDS011;63678;47.994;7.854;2023-12-04T14:36:19;8.13;;;4.55;;
2452;SDS011;63678;47.994;7.854;2023-12-04T14:38:52;9.68;;;4.97;;
2452;SDS011;63678;47.994;7.854;2023-12-04T14:41:25;6.78;;;3.20;;
2452;SDS011;63678;47.994;7.854;2023-12-04T14:43:57;5.38;;;2.90;;
2452;SDS011;63678;47.994;7.854;2023-12-04T14:46:30;5.20;;;2.07;;
2452;SDS011;63678;47.994;7.854;2023-12-04T14:49:03;3.92;;;1.75;;
2452;SDS011;63678;47.994;7.854;2023-12-04T14:51:36;7.95;;;3.03;;
2452;SDS011;63678;47.994;7.854;2023-12-04T14:54:09;6.65;;;3.20;;
2452;SDS011;63678;47.994;7.854;2023-12-04T14:56:47;4.90;;;2.15;;
2452;SDS011;63678;47.994;7.854;2023-12-04T14:59:38;4.53;;;2.27;;
2452;SDS011;63678;47.994;7.854;2023-12-04T15:02:35;6.03;;;2.78;;
2452;SDS011;63678;47.994;7.854;2023-12-04T15:05:11;5.40;;;2.28;;
2452;SDS011;63678;47.994;7.854;2023-12-04T15:07:49;5.97;;;2.83;;
2452;SDS011;63678;47.994;7.854;2023-12-04T15:10:44;6.53;;;2.70;;
2452;SDS011;63678;47.994;7.854;2023-12-04T15:13:36;7.10;;;2.60;;
2452;SDS011;63678;47.994;7.854;2023-12-04T15:16:34;5.32;;;2.30;;
2452;SDS011;63678;47.994;7.854;2023-12-04T15:19:14;4.95;;;2.20;;
2452;SDS011;63678;47.994;7.854;2023-12-04T15:22:08;4.75;;;2.33;;
2452;SDS011;63678;47.994;7.854;2023-12-04T15:24:40;7.30;;;2.63;;
2452;SDS011;63678;47.994;7.854;2023-12-04T15:27:13;6.53;;;2.97;;
2452;SDS011;63678;47.994;7.854;2023-12-04T15:29:54;4.03;;;2.13;;
2452;SDS011;63678;47.994;7.854;2023-12-04T15:32:27;5.43;;;2.38;;
2452;SDS011;63678;47.994;7.854;2023-12-04T15:35:01;6.93;;;2.42;;
2452;SDS011;63678;47.994;7.854;2023-12-04T15:37:38;7.85;;;2.30;;
2452;SDS011;63678;47.994;7.854;2023-12-04T15:40:10;7.63;;;2.90;;
2452;SDS011;63678;47.994;7.854;2023-12-04T15:42:43;5.13;;;2.40;;
2452;SDS011;63678;47.994;7.854;2023-12-04T15:45:15;5.80;;;2.38;;
2452;SDS011;63678;47.994;7.854;2023-12-04T15:47:48;5.65;;;2.97;;
2452;SDS011;63678;47.994;7.854;2023-12-04T15:50:21;6.95;;;2.75;;
2452;SDS011;63678;47.994;7.854;2023-12-04T15:52:55;6.03;;;2.27;;
2452;SDS011;63678;47.994;7.854;2023-12-04T15:55:28;6.18;;;2.53;;
2452;SDS011;63678;47.994;7.854;2023-12-04T15:58:00;6.18;;;2.80;;
2452;SDS011;63678;47.994;7.854;2023-12-04T16:00:34;4.20;;;2.17;;
2452;SDS011;63678;47.994;7.854;2023-12-04T16:03:07;6.25;;;2.95;;
2452;SDS011;63678;47.994;7.854;2023-12-04T16:05:39;7.87;;;2.53;;
2452;SDS011;63678;47.994;7.854;2023-12-04T16:08:13;5.88;;;2.38;;
2452;SDS011;63678;47.994;7.854;2023-12-04T16:10:45;6.25;;;2.80;;
2452;SDS011;63678;47.994;7.854;2023-12-04T16:13:18;8.30;;;3.13;;
2452;SDS011;63678;47.994;7.854;2023-12-04T16:15:50;7.32;;;3.00;;
2452;SDS011;63678;47.994;7.854;2023-12-04T16:18:23;8.43;;;3.03;;
2452;SDS011;63678;47.994;7.854;2023-12-04T16:20:55;7.53;;;3.15;;
2452;SDS011;63678;47.994;7.854;2023-12-04T16:23:28;8.50;;;3.92;;
2452;SDS011;63678;47.994;7.854;2023-12-04T16:26:00;6.85;;;3.08;;
2452;SDS011;63678;47.994;7.854;2023-12-04T16:28:33;4.95;;;2.40;;
2452;SDS011;63678;47.994;7.854;2023-12-04T16:31:06;9.50;;;3.00;;
2452;SDS011;63678;47.994;7.854;2023-12-04T16:33:38;6.63;;;3.20;;
2452;SDS011;63678;47.994;7.854;2023-12-04T16:36:11;7.72;;;3.47;;
2452;SDS011;63678;47.994;7.854;2023-12-04T16:38:43;5.82;;;2.50;;
2452;SDS011;63678;47.994;7.854;2023-12-04T16:41:16;6.47;;;2.60;;
2452;SDS011;63678;47.994;7.854;2023-12-04T16:43:48;8.83;;;4.23;;
2452;SDS011;63678;47.994;7.854;2023-12-04T16:46:20;5.97;;;2.92;;
2452;SDS011;63678;47.994;7.854;2023-12-04T16:48:52;7.93;;;2.92;;